sensor_id;sensor_type;location;lat;lon;timestamp;pressure;altitude;pressure_sealevel;temperature;humidity
34931;BME280;21134;49.646;8.560;2022-07-23T00:01:21;100435.81;;;23.89;61.66
34931;BME280;21134;49.646;8.560;2022-07-23T00:03:47;100450.47;;;23.92;61.09
34931;BME280;21134;49.646;8.560;2022-07-23T00:06:14;100460.94;;;23.92;61.22
34931;BME280;21134;49.646;8.560;2022-07-23T00:08:41;100463.47;;;23.93;61.24
34931;BME280;21134;49.646;8.560;2022-07-23T00:11:08;100463.81;;;23.87;60.86
34931;BME280;21134;49.646;8.560;2022-07-23T00:13:35;100481.41;;;23.83;60.98
34931;BME280;21134;49.646;8.560;2022-07-23T00:16:01;100487.84;;;23.78;61.52
34931;BME280;21134;49.646;8.560;2022-07-23T00:18:29;100488.84;;;23.91;61.01
34931;BME280;21134;49.646;8.560;2022-07-23T00:20:56;100490.97;;;23.84;61.00
34931;BME280;21134;49.646;8.560;2022-07-23T00:23:23;100474.69;;;23.79;61.84
34931;BME280;21134;49.646;8.560;2022-07-23T00:25:50;100453.88;;;23.78;62.21
34931;BME280;21134;49.646;8.560;2022-07-23T00:28:17;100450.69;;;23.73;62.02
34931;BME280;21134;49.646;8.560;2022-07-23T00:30:44;100458.50;;;23.73;62.05
34931;BME280;21134;49.646;8.560;2022-07-23T00:33:11;100448.84;;;23.75;62.13
34931;BME280;21134;49.646;8.560;2022-07-23T00:35:41;100452.16;;;23.61;64.31
34931;BME280;21134;49.646;8.560;2022-07-23T00:38:09;100443.84;;;23.38;65.46
34931;BME280;21134;49.646;8.560;2022-07-23T00:40:36;100437.28;;;23.31;66.13
34931;BME280;21134;49.646;8.560;2022-07-23T00:43:03;100425.72;;;23.19;65.98
34931;BME280;21134;49.646;8.560;2022-07-23T00:45:30;100427.75;;;23.14;66.36
34931;BME280;21134;49.646;8.560;2022-07-23T00:47:57;100431.22;;;23.15;66.78
34931;BME280;21134;49.646;8.560;2022-07-23T00:50:24;100432.88;;;23.16;66.59
34931;BME280;21134;49.646;8.560;2022-07-23T00:52:53;100435.25;;;23.20;66.43
34931;BME280;21134;49.646;8.560;2022-07-23T00:55:19;100449.81;;;23.25;66.98
34931;BME280;21134;49.646;8.560;2022-07-23T00:57:46;100450.59;;;23.27;67.16
34931;BME280;21134;49.646;8.560;2022-07-23T01:00:14;100457.41;;;23.29;67.00
34931;BME280;21134;49.646;8.560;2022-07-23T01:02:41;100471.31;;;23.30;66.35
34931;BME280;21134;49.646;8.560;2022-07-23T01:05:09;100480.72;;;23.32;65.94
34931;BME280;21134;49.646;8.560;2022-07-23T01:07:36;100495.50;;;23.33;65.44
34931;BME280;21134;49.646;8.560;2022-07-23T01:10:05;100495.16;;;23.39;65.25
34931;BME280;21134;49.646;8.560;2022-07-23T01:12:51;100479.00;;;23.33;65.18
34931;BME280;21134;49.646;8.560;2022-07-23T01:15:18;100484.59;;;23.25;65.48
34931;BME280;21134;49.646;8.560;2022-07-23T01:17:44;100487.38;;;23.22;65.62
34931;BME280;21134;49.646;8.560;2022-07-23T01:20:11;100493.94;;;23.29;65.03
34931;BME280;21134;49.646;8.560;2022-07-23T01:22:39;100486.13;;;23.13;65.51
34931;BME280;21134;49.646;8.560;2022-07-23T01:25:06;100481.66;;;23.15;65.13
34931;BME280;21134;49.646;8.560;2022-07-23T01:27:34;100477.56;;;22.94;66.02
34931;BME280;21134;49.646;8.560;2022-07-23T01:30:01;100466.66;;;22.86;66.46
34931;BME280;21134;49.646;8.560;2022-07-23T01:32:28;100469.50;;;22.81;66.86
34931;BME280;21134;49.646;8.560;2022-07-23T01:34:55;100469.84;;;22.75;67.27
34931;BME280;21134;49.646;8.560;2022-07-23T01:37:22;100466.28;;;22.93;66.62
34931;BME280;21134;49.646;8.560;2022-07-23T01:39:50;100450.50;;;22.79;67.03
34931;BME280;21134;49.646;8.560;2022-07-23T01:42:16;100422.28;;;22.70;67.25
34931;BME280;21134;49.646;8.560;2022-07-23T01:44:43;100431.81;;;22.54;68.15
34931;BME280;21134;49.646;8.560;2022-07-23T01:47:10;100445.53;;;22.57;68.14
34931;BME280;21134;49.646;8.560;2022-07-23T01:49:36;100458.94;;;22.67;68.17
34931;BME280;21134;49.646;8.560;2022-07-23T01:52:03;100460.72;;;22.66;67.78
34931;BME280;21134;49.646;8.560;2022-07-23T01:54:34;100460.25;;;22.58;67.79
34931;BME280;21134;49.646;8.560;2022-07-23T01:57:02;100459.16;;;22.46;68.59
34931;BME280;21134;49.646;8.560;2022-07-23T01:59:30;100454.22;;;22.58;67.87
34931;BME280;21134;49.646;8.560;2022-07-23T02:01:57;100463.66;;;22.60;67.72
34931;BME280;21134;49.646;8.560;2022-07-23T02:04:24;100469.47;;;22.48;68.27
34931;BME280;21134;49.646;8.560;2022-07-23T02:06:51;100461.75;;;22.46;68.31
34931;BME280;21134;49.646;8.560;2022-07-23T02:09:18;100472.41;;;22.42;68.48
34931;BME280;21134;49.646;8.560;2022-07-23T02:11:45;100481.81;;;22.27;69.49
34931;BME280;21134;49.646;8.560;2022-07-23T02:14:13;100479.88;;;22.13;69.84
34931;BME280;21134;49.646;8.560;2022-07-23T02:16:40;100482.16;;;22.21;69.52
34931;BME280;21134;49.646;8.560;2022-07-23T02:19:06;100482.84;;;22.24;69.60
34931;BME280;21134;49.646;8.560;2022-07-23T02:21:33;100479.47;;;22.22;69.82
34931;BME280;21134;49.646;8.560;2022-07-23T02:23:59;100481.63;;;22.13;70.21
34931;BME280;21134;49.646;8.560;2022-07-23T02:26:26;100477.34;;;22.12;70.03
34931;BME280;21134;49.646;8.560;2022-07-23T02:28:52;100483.97;;;22.19;69.94
34931;BME280;21134;49.646;8.560;2022-07-23T02:31:20;100469.25;;;22.35;69.27
34931;BME280;21134;49.646;8.560;2022-07-23T02:33:47;100480.00;;;22.29;69.27
34931;BME280;21134;49.646;8.560;2022-07-23T02:36:13;100464.34;;;22.29;69.33
34931;BME280;21134;49.646;8.560;2022-07-23T02:38:40;100468.50;;;22.16;69.71
34931;BME280;21134;49.646;8.560;2022-07-23T02:41:06;100462.84;;;22.06;70.23
34931;BME280;21134;49.646;8.560;2022-07-23T02:43:33;100453.03;;;21.94;70.62
34931;BME280;21134;49.646;8.560;2022-07-23T02:45:59;100450.19;;;21.98;70.28
34931;BME280;21134;49.646;8.560;2022-07-23T02:48:27;100456.19;;;22.00;70.07
34931;BME280;21134;49.646;8.560;2022-07-23T02:50:54;100453.66;;;21.99;69.95
34931;BME280;21134;49.646;8.560;2022-07-23T02:53:21;100445.38;;;21.91;69.81
34931;BME280;21134;49.646;8.560;2022-07-23T02:55:48;100465.28;;;21.92;70.02
34931;BME280;21134;49.646;8.560;2022-07-23T02:58:15;100488.59;;;21.95;70.27
34931;BME280;21134;49.646;8.560;2022-07-23T03:00:42;100502.69;;;21.91;70.06
34931;BME280;21134;49.646;8.560;2022-07-23T03:03:08;100497.03;;;22.00;70.13
34931;BME280;21134;49.646;8.560;2022-07-23T03:05:36;100494.97;;;22.06;69.83
34931;BME280;21134;49.646;8.560;2022-07-23T03:08:03;100515.97;;;22.03;70.31
34931;BME280;21134;49.646;8.560;2022-07-23T03:10:30;100506.53;;;22.01;70.25
34931;BME280;21134;49.646;8.560;2022-07-23T03:12:57;100513.59;;;22.18;69.62
34931;BME280;21134;49.646;8.560;2022-07-23T03:15:23;100515.41;;;22.16;70.04
34931;BME280;21134;49.646;8.560;2022-07-23T03:17:50;100532.16;;;22.10;70.26
34931;BME280;21134;49.646;8.560;2022-07-23T03:20:16;100520.88;;;22.10;70.56
34931;BME280;21134;49.646;8.560;2022-07-23T03:22:44;100531.75;;;22.00;70.98
34931;BME280;21134;49.646;8.560;2022-07-23T03:25:11;100531.69;;;22.02;70.96
34931;BME280;21134;49.646;8.560;2022-07-23T03:27:37;100518.94;;;21.96;71.34
34931;BME280;21134;49.646;8.560;2022-07-23T03:30:05;100532.81;;;21.96;71.47
34931;BME280;21134;49.646;8.560;2022-07-23T03:32:32;100542.75;;;21.88;71.73
34931;BME280;21134;49.646;8.560;2022-07-23T03:34:58;100538.47;;;21.87;72.00
34931;BME280;21134;49.646;8.560;2022-07-23T03:37:25;100532.41;;;21.87;72.26
34931;BME280;21134;49.646;8.560;2022-07-23T03:39:53;100543.59;;;21.89;72.12
34931;BME280;21134;49.646;8.560;2022-07-23T03:42:20;100538.84;;;21.79;72.38
34931;BME280;21134;49.646;8.560;2022-07-23T03:44:46;100542.28;;;21.80;72.39
34931;BME280;21134;49.646;8.560;2022-07-23T03:47:13;100541.63;;;21.75;72.62
34931;BME280;21134;49.646;8.560;2022-07-23T03:49:39;100546.56;;;21.81;72.64
34931;BME280;21134;49.646;8.560;2022-07-23T03:52:06;100543.97;;;21.81;73.56
34931;BME280;21134;49.646;8.560;2022-07-23T03:54:32;100534.81;;;21.72;74.38
34931;BME280;21134;49.646;8.560;2022-07-23T03:57:00;100539.16;;;21.72;76.20
34931;BME280;21134;49.646;8.560;2022-07-23T03:59:27;100537.50;;;21.71;75.57
34931;BME280;21134;49.646;8.560;2022-07-23T04:01:53;100535.81;;;21.70;75.63
34931;BME280;21134;49.646;8.560;2022-07-23T04:04:20;100525.53;;;21.67;76.52
34931;BME280;21134;49.646;8.560;2022-07-23T04:06:46;100520.53;;;21.43;79.16
34931;BME280;21134;49.646;8.560;2022-07-23T04:09:13;100528.81;;;21.32;79.65
34931;BME280;21134;49.646;8.560;2022-07-23T04:11:39;100532.06;;;21.38;79.95
34931;BME280;21134;49.646;8.560;2022-07-23T04:14:07;100533.34;;;21.48;78.51
34931;BME280;21134;49.646;8.560;2022-07-23T04:16:34;100529.41;;;21.39;79.32
34931;BME280;21134;49.646;8.560;2022-07-23T04:19:00;100526.09;;;21.35;80.07
34931;BME280;21134;49.646;8.560;2022-07-23T04:21:29;100549.09;;;21.24;80.11
34931;BME280;21134;49.646;8.560;2022-07-23T04:23:56;100557.69;;;21.26;80.48
34931;BME280;21134;49.646;8.560;2022-07-23T04:26:22;100571.69;;;21.24;80.95
34931;BME280;21134;49.646;8.560;2022-07-23T04:28:50;100582.94;;;21.24;80.76
34931;BME280;21134;49.646;8.560;2022-07-23T04:31:18;100603.06;;;21.21;80.53
34931;BME280;21134;49.646;8.560;2022-07-23T04:33:44;100610.09;;;21.19;79.86
34931;BME280;21134;49.646;8.560;2022-07-23T04:36:11;100619.38;;;21.24;80.00
34931;BME280;21134;49.646;8.560;2022-07-23T04:38:37;100627.31;;;21.21;80.28
34931;BME280;21134;49.646;8.560;2022-07-23T04:41:04;100630.06;;;21.18;79.97
34931;BME280;21134;49.646;8.560;2022-07-23T04:43:30;100629.41;;;21.13;80.44
34931;BME280;21134;49.646;8.560;2022-07-23T04:45:57;100644.25;;;21.11;80.68
34931;BME280;21134;49.646;8.560;2022-07-23T04:48:25;100656.31;;;21.12;81.14
34931;BME280;21134;49.646;8.560;2022-07-23T04:50:51;100653.59;;;21.15;82.13
34931;BME280;21134;49.646;8.560;2022-07-23T04:53:18;100639.03;;;21.11;81.84
34931;BME280;21134;49.646;8.560;2022-07-23T04:55:45;100619.66;;;20.98;82.55
34931;BME280;21134;49.646;8.560;2022-07-23T04:58:11;100596.25;;;20.77;84.57
34931;BME280;21134;49.646;8.560;2022-07-23T05:00:38;100604.44;;;20.68;85.79
34931;BME280;21134;49.646;8.560;2022-07-23T05:03:04;100613.00;;;20.70;85.02
34931;BME280;21134;49.646;8.560;2022-07-23T05:05:32;100646.78;;;20.70;85.67
34931;BME280;21134;49.646;8.560;2022-07-23T05:07:59;100655.63;;;20.66;87.42
34931;BME280;21134;49.646;8.560;2022-07-23T05:10:25;100643.31;;;20.71;87.09
34931;BME280;21134;49.646;8.560;2022-07-23T05:12:52;100638.94;;;20.72;87.15
34931;BME280;21134;49.646;8.560;2022-07-23T05:15:19;100650.09;;;20.74;88.30
34931;BME280;21134;49.646;8.560;2022-07-23T05:17:45;100664.94;;;20.72;88.82
34931;BME280;21134;49.646;8.560;2022-07-23T05:20:12;100680.31;;;20.78;87.67
34931;BME280;21134;49.646;8.560;2022-07-23T05:22:41;100687.06;;;20.82;86.24
34931;BME280;21134;49.646;8.560;2022-07-23T05:25:07;100695.19;;;20.74;87.64
34931;BME280;21134;49.646;8.560;2022-07-23T05:27:34;100700.63;;;20.68;88.07
34931;BME280;21134;49.646;8.560;2022-07-23T05:30:01;100689.06;;;20.75;86.98
34931;BME280;21134;49.646;8.560;2022-07-23T05:32:27;100682.94;;;20.76;85.75
34931;BME280;21134;49.646;8.560;2022-07-23T05:34:54;100680.44;;;20.75;85.48
34931;BME280;21134;49.646;8.560;2022-07-23T05:37:20;100663.63;;;20.61;85.84
34931;BME280;21134;49.646;8.560;2022-07-23T05:39:50;100669.00;;;20.57;86.56
34931;BME280;21134;49.646;8.560;2022-07-23T05:42:17;100666.47;;;20.55;86.67
34931;BME280;21134;49.646;8.560;2022-07-23T05:44:43;100661.19;;;20.57;86.03
34931;BME280;21134;49.646;8.560;2022-07-23T05:47:10;100652.69;;;20.53;86.45
34931;BME280;21134;49.646;8.560;2022-07-23T05:49:37;100651.72;;;20.56;85.68
34931;BME280;21134;49.646;8.560;2022-07-23T05:52:04;100646.53;;;20.76;83.45
34931;BME280;21134;49.646;8.560;2022-07-23T05:54:33;100653.38;;;20.79;83.84
34931;BME280;21134;49.646;8.560;2022-07-23T05:57:01;100649.25;;;20.73;84.61
34931;BME280;21134;49.646;8.560;2022-07-23T05:59:28;100652.72;;;20.74;84.35
34931;BME280;21134;49.646;8.560;2022-07-23T06:01:54;100635.31;;;20.76;83.78
34931;BME280;21134;49.646;8.560;2022-07-23T06:04:21;100632.94;;;20.70;82.88
34931;BME280;21134;49.646;8.560;2022-07-23T06:06:47;100639.69;;;20.53;84.49
34931;BME280;21134;49.646;8.560;2022-07-23T06:09:14;100633.06;;;20.66;84.13
34931;BME280;21134;49.646;8.560;2022-07-23T06:11:41;100637.34;;;20.67;83.67
34931;BME280;21134;49.646;8.560;2022-07-23T06:14:08;100626.19;;;20.65;84.26
34931;BME280;21134;49.646;8.560;2022-07-23T06:16:35;100631.03;;;20.75;83.33
34931;BME280;21134;49.646;8.560;2022-07-23T06:19:02;100624.91;;;20.76;81.92
34931;BME280;21134;49.646;8.560;2022-07-23T06:21:28;100641.72;;;20.67;83.93
34931;BME280;21134;49.646;8.560;2022-07-23T06:23:55;100644.41;;;20.65;83.63
34931;BME280;21134;49.646;8.560;2022-07-23T06:26:21;100654.53;;;20.72;83.36
34931;BME280;21134;49.646;8.560;2022-07-23T06:28:48;100658.09;;;20.91;81.33
34931;BME280;21134;49.646;8.560;2022-07-23T06:31:15;100665.97;;;21.10;81.05
34931;BME280;21134;49.646;8.560;2022-07-23T06:33:42;100670.66;;;21.22;81.15
34931;BME280;21134;49.646;8.560;2022-07-23T06:36:09;100673.50;;;21.38;79.15
34931;BME280;21134;49.646;8.560;2022-07-23T06:38:35;100674.06;;;21.45;78.16
34931;BME280;21134;49.646;8.560;2022-07-23T06:41:02;100682.97;;;21.59;77.47
34931;BME280;21134;49.646;8.560;2022-07-23T06:43:30;100695.47;;;21.51;76.91
34931;BME280;21134;49.646;8.560;2022-07-23T06:45:56;100690.47;;;21.67;76.99
34931;BME280;21134;49.646;8.560;2022-07-23T06:48:24;100694.34;;;21.77;76.92
34931;BME280;21134;49.646;8.560;2022-07-23T06:50:51;100703.97;;;21.75;75.63
34931;BME280;21134;49.646;8.560;2022-07-23T06:53:18;100709.75;;;21.82;74.36
34931;BME280;21134;49.646;8.560;2022-07-23T06:55:44;100717.44;;;21.85;76.44
34931;BME280;21134;49.646;8.560;2022-07-23T06:58:11;100720.44;;;21.96;76.44
34931;BME280;21134;49.646;8.560;2022-07-23T07:00:39;100732.06;;;22.08;77.17
34931;BME280;21134;49.646;8.560;2022-07-23T07:03:05;100729.38;;;22.10;76.94
34931;BME280;21134;49.646;8.560;2022-07-23T07:05:33;100729.03;;;22.17;76.04
34931;BME280;21134;49.646;8.560;2022-07-23T07:08:00;100718.63;;;22.17;74.97
34931;BME280;21134;49.646;8.560;2022-07-23T07:10:26;100711.78;;;22.15;75.31
34931;BME280;21134;49.646;8.560;2022-07-23T07:12:53;100714.16;;;22.21;75.03
34931;BME280;21134;49.646;8.560;2022-07-23T07:15:19;100722.25;;;22.34;73.63
34931;BME280;21134;49.646;8.560;2022-07-23T07:17:46;100708.47;;;22.49;71.99
34931;BME280;21134;49.646;8.560;2022-07-23T07:20:13;100720.47;;;22.34;73.19
34931;BME280;21134;49.646;8.560;2022-07-23T07:22:41;100722.25;;;22.34;72.89
34931;BME280;21134;49.646;8.560;2022-07-23T07:25:07;100723.78;;;22.38;73.10
34931;BME280;21134;49.646;8.560;2022-07-23T07:27:34;100715.75;;;22.23;72.23
34931;BME280;21134;49.646;8.560;2022-07-23T07:30:01;100723.78;;;22.19;72.30
34931;BME280;21134;49.646;8.560;2022-07-23T07:32:27;100726.44;;;22.36;70.92
34931;BME280;21134;49.646;8.560;2022-07-23T07:34:54;100725.56;;;22.37;71.41
34931;BME280;21134;49.646;8.560;2022-07-23T07:37:21;100743.25;;;22.31;71.52
34931;BME280;21134;49.646;8.560;2022-07-23T07:39:49;100737.78;;;22.16;72.96
34931;BME280;21134;49.646;8.560;2022-07-23T07:42:15;100735.97;;;22.37;71.85
34931;BME280;21134;49.646;8.560;2022-07-23T07:44:42;100733.94;;;22.25;72.48
34931;BME280;21134;49.646;8.560;2022-07-23T07:47:08;100737.88;;;22.34;72.38
34931;BME280;21134;49.646;8.560;2022-07-23T07:49:35;100741.88;;;22.22;72.93
34931;BME280;21134;49.646;8.560;2022-07-23T07:52:02;100739.09;;;22.06;73.19
34931;BME280;21134;49.646;8.560;2022-07-23T07:54:28;100748.72;;;22.24;72.94
34931;BME280;21134;49.646;8.560;2022-07-23T07:56:56;100754.28;;;22.36;72.01
34931;BME280;21134;49.646;8.560;2022-07-23T07:59:23;100763.59;;;22.41;71.81
34931;BME280;21134;49.646;8.560;2022-07-23T08:01:50;100756.19;;;22.51;70.72
34931;BME280;21134;49.646;8.560;2022-07-23T08:04:17;100759.56;;;22.72;70.07
34931;BME280;21134;49.646;8.560;2022-07-23T08:06:43;100764.94;;;22.69;70.39
34931;BME280;21134;49.646;8.560;2022-07-23T08:09:10;100772.19;;;22.62;70.49
34931;BME280;21134;49.646;8.560;2022-07-23T08:11:36;100776.63;;;22.79;70.02
34931;BME280;21134;49.646;8.560;2022-07-23T08:14:04;100770.41;;;22.82;69.61
34931;BME280;21134;49.646;8.560;2022-07-23T08:16:31;100778.25;;;23.01;69.25
34931;BME280;21134;49.646;8.560;2022-07-23T08:18:57;100785.00;;;23.05;69.81
34931;BME280;21134;49.646;8.560;2022-07-23T08:21:24;100781.59;;;23.03;69.65
34931;BME280;21134;49.646;8.560;2022-07-23T08:23:51;100778.00;;;23.05;68.77
34931;BME280;21134;49.646;8.560;2022-07-23T08:26:17;100780.34;;;22.92;69.59
34931;BME280;21134;49.646;8.560;2022-07-23T08:28:44;100772.69;;;23.07;69.52
34931;BME280;21134;49.646;8.560;2022-07-23T08:31:11;100773.41;;;23.45;67.93
34931;BME280;21134;49.646;8.560;2022-07-23T08:33:40;100771.50;;;23.83;66.08
34931;BME280;21134;49.646;8.560;2022-07-23T08:36:08;100773.94;;;24.04;66.14
34931;BME280;21134;49.646;8.560;2022-07-23T08:38:34;100771.44;;;24.34;65.24
34931;BME280;21134;49.646;8.560;2022-07-23T08:41:02;100778.38;;;24.19;64.36
34931;BME280;21134;49.646;8.560;2022-07-23T08:43:30;100779.72;;;24.26;65.03
34931;BME280;21134;49.646;8.560;2022-07-23T08:45:58;100787.13;;;24.51;62.92
34931;BME280;21134;49.646;8.560;2022-07-23T08:48:28;100781.69;;;24.39;63.08
34931;BME280;21134;49.646;8.560;2022-07-23T08:50:57;100786.47;;;24.30;63.66
34931;BME280;21134;49.646;8.560;2022-07-23T08:53:25;100781.47;;;24.59;62.74
34931;BME280;21134;49.646;8.560;2022-07-23T08:55:52;100784.06;;;24.75;61.61
34931;BME280;21134;49.646;8.560;2022-07-23T08:58:20;100789.47;;;24.72;61.68
34931;BME280;21134;49.646;8.560;2022-07-23T09:00:47;100788.19;;;24.95;61.86
34931;BME280;21134;49.646;8.560;2022-07-23T09:03:16;100783.13;;;24.92;61.61
34931;BME280;21134;49.646;8.560;2022-07-23T09:05:44;100789.28;;;25.06;60.92
34931;BME280;21134;49.646;8.560;2022-07-23T09:08:12;100789.13;;;24.94;61.13
34931;BME280;21134;49.646;8.560;2022-07-23T09:10:44;100783.44;;;25.01;62.23
34931;BME280;21134;49.646;8.560;2022-07-23T09:13:23;100784.00;;;25.38;61.24
34931;BME280;21134;49.646;8.560;2022-07-23T09:15:51;100773.88;;;25.77;60.66
34931;BME280;21134;49.646;8.560;2022-07-23T09:18:18;100774.72;;;25.77;60.23
34931;BME280;21134;49.646;8.560;2022-07-23T09:20:46;100765.91;;;25.64;58.99
34931;BME280;21134;49.646;8.560;2022-07-23T09:23:12;100770.81;;;25.84;58.66
34931;BME280;21134;49.646;8.560;2022-07-23T09:25:39;100766.69;;;26.09;58.24
34931;BME280;21134;49.646;8.560;2022-07-23T09:28:05;100763.31;;;26.07;58.18
34931;BME280;21134;49.646;8.560;2022-07-23T09:30:33;100769.28;;;25.80;58.42
34931;BME280;21134;49.646;8.560;2022-07-23T09:33:04;100767.03;;;25.60;59.23
34931;BME280;21134;49.646;8.560;2022-07-23T09:35:50;100763.53;;;25.89;58.55
34931;BME280;21134;49.646;8.560;2022-07-23T09:38:17;100758.47;;;25.86;58.73
34931;BME280;21134;49.646;8.560;2022-07-23T09:40:45;100760.50;;;26.10;58.10
34931;BME280;21134;49.646;8.560;2022-07-23T09:43:12;100754.50;;;26.22;58.14
34931;BME280;21134;49.646;8.560;2022-07-23T09:45:39;100758.34;;;26.31;56.69
34931;BME280;21134;49.646;8.560;2022-07-23T09:48:13;100760.50;;;26.53;56.56
34931;BME280;21134;49.646;8.560;2022-07-23T09:50:40;100764.13;;;26.64;57.08
34931;BME280;21134;49.646;8.560;2022-07-23T09:53:09;100769.97;;;26.82;56.31
34931;BME280;21134;49.646;8.560;2022-07-23T09:55:36;100769.53;;;27.03;55.22
34931;BME280;21134;49.646;8.560;2022-07-23T09:58:05;100775.25;;;26.95;54.38
34931;BME280;21134;49.646;8.560;2022-07-23T10:00:33;100766.38;;;27.10;54.74
34931;BME280;21134;49.646;8.560;2022-07-23T10:02:59;100762.38;;;27.32;53.08
34931;BME280;21134;49.646;8.560;2022-07-23T10:05:29;100758.19;;;27.55;53.41
34931;BME280;21134;49.646;8.560;2022-07-23T10:07:55;100760.91;;;27.53;53.66
34931;BME280;21134;49.646;8.560;2022-07-23T10:10:26;100762.28;;;27.06;54.77
34931;BME280;21134;49.646;8.560;2022-07-23T10:12:54;100759.66;;;27.06;55.18
34931;BME280;21134;49.646;8.560;2022-07-23T10:15:39;100765.22;;;27.29;53.54
34931;BME280;21134;49.646;8.560;2022-07-23T10:18:06;100764.06;;;27.46;53.56
34931;BME280;21134;49.646;8.560;2022-07-23T10:20:33;100763.72;;;27.38;53.04
34931;BME280;21134;49.646;8.560;2022-07-23T10:23:06;100763.66;;;27.52;53.90
34931;BME280;21134;49.646;8.560;2022-07-23T10:25:42;100760.88;;;27.28;52.88
34931;BME280;21134;49.646;8.560;2022-07-23T10:28:24;100763.00;;;27.35;53.32
34931;BME280;21134;49.646;8.560;2022-07-23T10:31:01;100764.56;;;26.98;53.80
34931;BME280;21134;49.646;8.560;2022-07-23T10:33:39;100758.88;;;27.19;53.92
34931;BME280;21134;49.646;8.560;2022-07-23T10:36:15;100756.28;;;27.04;53.88
34931;BME280;21134;49.646;8.560;2022-07-23T10:38:51;100760.16;;;27.26;52.98
34931;BME280;21134;49.646;8.560;2022-07-23T10:41:32;100757.38;;;27.15;54.00
34931;BME280;21134;49.646;8.560;2022-07-23T10:44:09;100752.56;;;27.21;52.83
34931;BME280;21134;49.646;8.560;2022-07-23T10:46:36;100753.69;;;27.57;52.08
34931;BME280;21134;49.646;8.560;2022-07-23T10:49:22;100747.78;;;27.92;52.11
34931;BME280;21134;49.646;8.560;2022-07-23T10:52:22;100751.28;;;27.92;51.79
34931;BME280;21134;49.646;8.560;2022-07-23T10:54:50;100748.38;;;28.34;49.90
34931;BME280;21134;49.646;8.560;2022-07-23T10:57:20;100747.00;;;28.28;50.03
34931;BME280;21134;49.646;8.560;2022-07-23T11:00:14;100746.38;;;28.24;49.90
34931;BME280;21134;49.646;8.560;2022-07-23T11:02:44;100746.78;;;28.44;48.78
34931;BME280;21134;49.646;8.560;2022-07-23T11:05:13;100748.19;;;28.61;48.86
34931;BME280;21134;49.646;8.560;2022-07-23T11:08:10;100749.81;;;28.98;48.47
34931;BME280;21134;49.646;8.560;2022-07-23T11:10:38;100745.41;;;28.75;48.60
34931;BME280;21134;49.646;8.560;2022-07-23T11:13:36;100743.72;;;28.50;49.15
34931;BME280;21134;49.646;8.560;2022-07-23T11:16:08;100751.00;;;28.70;47.43
34931;BME280;21134;49.646;8.560;2022-07-23T11:18:56;100744.25;;;28.90;47.04
34931;BME280;21134;49.646;8.560;2022-07-23T11:21:51;100740.56;;;28.93;47.14
34931;BME280;21134;49.646;8.560;2022-07-23T11:24:22;100746.09;;;29.25;46.57
34931;BME280;21134;49.646;8.560;2022-07-23T11:26:55;100738.16;;;29.14;46.29
34931;BME280;21134;49.646;8.560;2022-07-23T11:29:43;100740.47;;;29.41;45.06
34931;BME280;21134;49.646;8.560;2022-07-23T11:32:31;100737.50;;;29.57;43.66
34931;BME280;21134;49.646;8.560;2022-07-23T11:34:59;100728.28;;;29.51;45.66
34931;BME280;21134;49.646;8.560;2022-07-23T11:37:32;100727.81;;;29.46;44.73
34931;BME280;21134;49.646;8.560;2022-07-23T11:39:59;100734.69;;;29.71;44.55
34931;BME280;21134;49.646;8.560;2022-07-23T11:42:25;100733.31;;;29.54;43.84
34931;BME280;21134;49.646;8.560;2022-07-23T11:44:53;100732.28;;;29.22;44.76
34931;BME280;21134;49.646;8.560;2022-07-23T11:47:25;100730.91;;;29.40;44.46
34931;BME280;21134;49.646;8.560;2022-07-23T11:49:52;100733.16;;;29.33;45.29
34931;BME280;21134;49.646;8.560;2022-07-23T11:52:19;100727.75;;;29.24;44.97
34931;BME280;21134;49.646;8.560;2022-07-23T11:54:52;100728.22;;;29.17;45.17
34931;BME280;21134;49.646;8.560;2022-07-23T11:57:20;100719.63;;;29.27;44.93
34931;BME280;21134;49.646;8.560;2022-07-23T11:59:49;100721.19;;;29.29;45.59
34931;BME280;21134;49.646;8.560;2022-07-23T12:02:19;100714.94;;;28.95;45.56
34931;BME280;21134;49.646;8.560;2022-07-23T12:04:48;100713.31;;;29.05;45.67
34931;BME280;21134;49.646;8.560;2022-07-23T12:07:25;100704.69;;;29.03;45.83
34931;BME280;21134;49.646;8.560;2022-07-23T12:09:52;100713.75;;;28.99;45.93
34931;BME280;21134;49.646;8.560;2022-07-23T12:12:19;100706.38;;;29.04;45.40
34931;BME280;21134;49.646;8.560;2022-07-23T12:14:50;100704.13;;;28.87;45.09
34931;BME280;21134;49.646;8.560;2022-07-23T12:17:19;100706.38;;;29.04;44.86
34931;BME280;21134;49.646;8.560;2022-07-23T12:19:46;100718.50;;;29.18;45.72
34931;BME280;21134;49.646;8.560;2022-07-23T12:22:13;100709.72;;;29.53;44.54
34931;BME280;21134;49.646;8.560;2022-07-23T12:24:54;100710.94;;;29.82;43.95
34931;BME280;21134;49.646;8.560;2022-07-23T12:27:22;100707.34;;;29.95;43.06
34931;BME280;21134;49.646;8.560;2022-07-23T12:29:49;100702.41;;;30.01;43.26
34931;BME280;21134;49.646;8.560;2022-07-23T12:32:20;100705.28;;;29.98;43.26
34931;BME280;21134;49.646;8.560;2022-07-23T12:34:49;100703.50;;;29.99;43.31
34931;BME280;21134;49.646;8.560;2022-07-23T12:37:29;100707.09;;;30.20;42.71
34931;BME280;21134;49.646;8.560;2022-07-23T12:39:57;100708.38;;;30.15;42.99
34931;BME280;21134;49.646;8.560;2022-07-23T12:42:23;100712.88;;;30.25;42.48
34931;BME280;21134;49.646;8.560;2022-07-23T12:45:08;100709.69;;;30.43;41.40
34931;BME280;21134;49.646;8.560;2022-07-23T12:48:01;100718.34;;;30.33;41.26
34931;BME280;21134;49.646;8.560;2022-07-23T12:50:37;100716.59;;;30.23;42.39
34931;BME280;21134;49.646;8.560;2022-07-23T12:53:09;100707.31;;;30.17;42.32
34931;BME280;21134;49.646;8.560;2022-07-23T12:55:38;100709.50;;;30.01;42.67
34931;BME280;21134;49.646;8.560;2022-07-23T12:58:11;100713.47;;;29.84;42.89